Have a Safe July 4th! 

Flight Track Log - Related Links

Times and Time Zones

All times are in EDT time to prevent confusion due to time zone crossing. See the SKW6345 flight status page for this flight to view local times or setup timezone preferences in your user account.

Time Position Orientation Groundspeed Altitude Reporting Facility
EDT Latitude Longitude Course Direction KTS MPH feet Rate Location/Type
Sun 11:46:48 AM 37.6500 -122.3333 34° Northeast 185 213 1,800  Level Northern Cal TRACON
Sun 11:47:48 AM 37.6833 -122.2833 50° Northeast 217 250 4,300 2,452 Climbing Northern Cal TRACON
Sun 11:49:00 AM 37.7032 -122.2802 38° Northeast  Level FlightAware Approximate
Sun 11:50:00 AM 37.8094 -122.1708 46° Northeast  Level FlightAware Approximate
Sun 11:50:16 AM 37.8244 -122.1508 37° Northeast 277 319 10,300  Level Oakland Center
Sun 11:51:00 AM 37.9148 -122.0612 34° Northeast  Level FlightAware Approximate
Sun 11:51:18 AM 37.9106 -122.0686 37° Northeast 324 373 12,700  Level Oakland Center
Sun 11:52:19 AM 37.9850 -121.9961 38° Northeast 336 387 15,100 2,311 Climbing Oakland Center
Sun 11:53:20 AM 38.0628 -121.9169 39° Northeast 355 409 17,400 2,016 Climbing Oakland Center
Sun 11:54:21 AM 38.1375 -121.8300 42° Northeast 363 418 19,200 1,854 Climbing Oakland Center
Sun 11:55:23 AM 38.2161 -121.7383 42° Northeast 380 437 21,200 1,756 Climbing Oakland Center
Sun 11:56:24 AM 38.2967 -121.6425 43° Northeast 395 455 22,800 1,574 Climbing Oakland Center
Sun 11:57:25 AM 38.3811 -121.5439 42° Northeast 410 472 24,400 1,525 Climbing Oakland Center
Sun 11:58:26 AM 38.4689 -121.4442 42° Northeast 421 484 25,900 1,415 Climbing Oakland Center
Sun 11:59:28 AM 38.5575 -121.3392 43° Northeast 430 495 27,300 1,415 Climbing Oakland Center
Sun 12:00:29 PM 38.6658 -121.2100 43° Northeast 442 509 28,800 1,230 Climbing Oakland Center
Sun 12:01:30 PM 38.7486 -121.1072 44° Northeast 459 528 29,800 1,024 Climbing Oakland Center
Sun 12:02:32 PM 38.8422 -120.9964 43° Northeast 457 526 30,900 976 Climbing Oakland Center
Sun 12:03:33 PM 38.9383 -120.8814 43° Northeast 469 540 31,800 1,279 Climbing Oakland Center
Sun 12:04:34 PM 39.0528 -120.7439 43° Northeast 470 541 33,500 1,268 Climbing Oakland Center
Sun 12:05:36 PM 39.1483 -120.6281 43° Northeast 470 541 34,400 927 Climbing Oakland Center
Sun 12:06:37 PM 39.2431 -120.5122 43° Northeast 470 541 35,400 934 Climbing Oakland Center
Sun 12:07:38 PM 39.3397 -120.3944 43° Northeast 475 547 36,300 878 Climbing Oakland Center
Sun 12:08:40 PM 39.4344 -120.2781 43° Northeast 473 544 37,200 780 Climbing Oakland Center
Sun 12:09:41 PM 39.5303 -120.1600 44° Northeast 473 544 37,900 689 Climbing Oakland Center
Sun 12:10:42 PM 39.6208 -120.0403 46° Northeast 465 535 38,600 537 Climbing Oakland Center
Sun 12:11:44 PM 39.7150 -119.9236 44° Northeast 465 535 39,000 195 Climbing Oakland Center
Sun 12:12:45 PM 39.8117 -119.8031 44° Northeast 479 551 39,000  Level Oakland Center
Sun 12:13:46 PM 39.9092 -119.6806 44° Northeast 485 558 39,000  Level Oakland Center
Sun 12:14:48 PM 40.0061 -119.5581 44° Northeast 484 557 39,000  Level Oakland Center
Sun 12:15:49 PM 40.1228 -119.4100 44° Northeast 483 556 39,000  Level Oakland Center
Sun 12:16:50 PM 40.2206 -119.2858 44° Northeast 486 559 39,000  Level Oakland Center
Sun 12:17:52 PM 40.3169 -119.1631 44° Northeast 482 555 39,000  Level Oakland Center
Sun 12:18:53 PM 40.4133 -119.0400 44° Northeast 483 556 39,000  Level Oakland Center
Sun 12:19:54 PM 40.5092 -118.9167 44° Northeast 480 552 39,000  Level Oakland Center
Sun 12:20:56 PM 40.6042 -118.7939 44° Northeast 479 551 39,000  Level Oakland Center
Sun 12:21:35 PM 40.6611 -118.7194 45° Northeast 479 551 39,000  Level Salt Lake Center
Sun 12:22:37 PM 40.7689 -118.5800 44° Northeast 483 556 39,000  Level Salt Lake Center
Sun 12:23:40 PM 40.8603 -118.4603 45° Northeast 483 556 39,000  Level Salt Lake Center
Sun 12:24:42 PM 40.9678 -118.3197 45° Northeast 485 558 39,000  Level Salt Lake Center
Sun 12:25:44 PM 41.0589 -118.1983 45° Northeast 485 558 39,000  Level Salt Lake Center
Sun 12:26:46 PM 41.1675 -118.0553 45° Northeast 488 562 39,000  Level Salt Lake Center
Sun 12:27:48 PM 41.2594 -117.9331 45° Northeast 488 562 39,000  Level Salt Lake Center
Sun 12:28:50 PM 41.3508 -117.8111 45° Northeast 486 559 39,000  Level Salt Lake Center
Sun 12:29:52 PM 41.4578 -117.6686 45° Northeast 486 559 39,000  Level Salt Lake Center
Sun 12:30:54 PM 41.5492 -117.5439 46° Northeast 488 562 39,000  Level Salt Lake Center
Sun 12:31:56 PM 41.6561 -117.3986 45° Northeast 490 564 39,000  Level Salt Lake Center
Sun 12:32:58 PM 41.7481 -117.2697 46° Northeast 500 575 39,000  Level Salt Lake Center
Sun 12:34:00 PM 41.8539 -117.1244 46° Northeast 486 559 39,000  Level Salt Lake Center
Sun 12:35:02 PM 41.9444 -116.9997 46° Northeast 485 558 39,000  Level Salt Lake Center
Sun 12:36:04 PM 42.0506 -116.8508 46° Northeast 489 563 39,000  Level Salt Lake Center
Sun 12:37:06 PM 42.1414 -116.7258 46° Northeast 488 562 39,000  Level Salt Lake Center
Sun 12:38:08 PM 42.2356 -116.5953 46° Northeast 487 560 39,000  Level Salt Lake Center
Sun 12:39:10 PM 42.3411 -116.4464 46° Northeast 491 565 39,000  Level Salt Lake Center
Sun 12:40:12 PM 42.4303 -116.3211 46° Northeast 482 555 39,000  Level Salt Lake Center
Sun 12:41:14 PM 42.5356 -116.1728 46° Northeast 488 562 39,000  Level Salt Lake Center
Sun 12:42:16 PM 42.6258 -116.0458 46° Northeast 489 563 39,000  Level Salt Lake Center
Sun 12:43:18 PM 42.7297 -115.8964 47° Northeast 489 563 39,000  Level Salt Lake Center
Sun 12:44:20 PM 42.8189 -115.7672 47° Northeast 491 565 39,000  Level Salt Lake Center
Sun 12:45:22 PM 42.9233 -115.6156 47° Northeast 492 566 39,000  Level Salt Lake Center
Sun 12:46:24 PM 43.0131 -115.4875 46° Northeast 487 560 39,000  Level Salt Lake Center
Sun 12:47:26 PM 43.1167 -115.3375 47° Northeast 487 560 39,000  Level Salt Lake Center
Sun 12:48:28 PM 43.2058 -115.2069 47° Northeast 489 563 39,000  Level Salt Lake Center
Sun 12:49:30 PM 43.3097 -115.0550 47° Northeast 492 566 39,000  Level Salt Lake Center
Sun 12:50:32 PM 43.3981 -114.9244 47° Northeast 492 566 39,000  Level Salt Lake Center
Sun 12:51:35 PM 43.4858 -114.7933 47° Northeast 488 562 39,000  Level Salt Lake Center
Sun 12:52:37 PM 43.5892 -114.6389 47° Northeast 490 564 39,000  Level Salt Lake Center
Sun 12:53:39 PM 43.6775 -114.5072 47° Northeast 490 564 39,000  Level Salt Lake Center
Sun 12:54:41 PM 43.7803 -114.3531 47° Northeast 488 562 39,000  Level Salt Lake Center
Sun 12:55:43 PM 43.8681 -114.2189 48° Northeast 491 565 39,000  Level Salt Lake Center
Sun 12:56:45 PM 43.9703 -114.0636 48° Northeast 489 563 39,000  Level Salt Lake Center
Sun 12:57:47 PM 44.0528 -113.9300 49° Northeast 474 545 39,000  Level Salt Lake Center
Sun 12:58:49 PM 44.1494 -113.7861 47° Northeast 492 566 39,000  Level Salt Lake Center
Sun 12:59:51 PM 44.2494 -113.6294 48° Northeast 487 560 39,000  Level Salt Lake Center
Sun 01:00:53 PM 44.3361 -113.4956 48° Northeast 485 558 39,000 48 Level Salt Lake Center
Sun 01:01:55 PM 44.4372 -113.3375 48° Northeast 487 560 39,100  Climbing Salt Lake Center
Sun 01:02:57 PM 44.5222 -113.2039 48° Northeast 482 555 39,000 -48 Descending Salt Lake Center
Sun 01:03:59 PM 44.6222 -113.0456 48° Northeast 484 557 39,000 -290 Level Salt Lake Center
Sun 01:05:01 PM 44.7064 -112.9108 49° Northeast 480 552 38,400 -1,355 Descending Salt Lake Center
Sun 01:06:03 PM 44.8042 -112.7561 48° Northeast 475 547 36,200 -2,226 Descending Salt Lake Center
Sun 01:07:05 PM 44.8842 -112.6258 49° Northeast 462 532 33,800 -2,516 Descending Salt Lake Center
Sun 01:08:07 PM 44.9772 -112.4783 48° Northeast 450 518 31,000 -2,516 Descending Salt Lake Center
Sun 01:09:09 PM 45.0539 -112.3522 49° Northeast 443 510 28,600 -2,323 Descending Salt Lake Center
Sun 01:10:11 PM 45.1289 -112.2322 48° Northeast 432 497 26,200 -2,565 Descending Salt Lake Center
Sun 01:11:13 PM 45.2125 -112.0933 49° Northeast 416 479 23,300 -2,544 Descending Salt Lake Center
Sun 01:12:16 PM 45.2825 -111.9789 49° Northeast 403 464 20,900 -2,352 Descending Salt Lake Center
Sun 01:13:18 PM 45.3525 -111.8622 49° Northeast 392 451 18,400 -2,323 Descending Salt Lake Center
Sun 01:14:20 PM 45.4200 -111.7494 50° Northeast 381 438 16,100 -2,565 Descending Salt Lake Center
Sun 01:15:22 PM 45.4989 -111.6203 49° Northeast 365 420 13,100 -1,500 Descending Salt Lake Center
Sun 01:16:24 PM 45.5586 -111.5197 50° Northeast 339 390 13,000 -581 Descending Salt Lake Center
Sun 01:17:26 PM 45.6111 -111.4294 50° Northeast 305 351 11,900 -1,016 Descending Salt Lake Center
Sun 01:18:28 PM 45.6494 -111.3350 60° Northeast 290 334 10,900 -1,306 Descending Salt Lake Center
Sun 01:19:30 PM 45.6664 -111.2494 74° East 251 289 9,200 -1,790 Descending Salt Lake Center
Sun 01:20:32 PM 45.6767 -111.1439 82° East 233 268 7,200 -1,548 Descending Salt Lake Center
Sun 01:21:34 PM 45.7081 -111.0867 52° Northeast 201 231 6,000 -919 Descending Salt Lake Center
Sun 01:22:36 PM 45.7411 -111.1017 342° North 171 197 5,300 -726 Descending Salt Lake Center
Sun 01:23:38 PM 45.7694 -111.1419 315° West 153 176 4,500 -774 Descending Salt Lake Center

Login

Don't have an account? Register now (free) for customized features, flight alerts, and more!